Time;durP1;ratioP1;P1;durP2;ratioP2;P2;SDS_P1;SDS_P2;PMS_P1;PMS_P2;Temp;Humidity;BMP_temperature;BMP_pressure;BME280_temperature;BME280_humidity;BME280_pressure;Samples;Min_cycle;Max_cycle;Signal;HPM_P1;HPM_P2
2022/12/15 00:38:59;;;;;;;8.15;5.75;;;;;;;-2.99;98.27;100167.50;5033952;28;20047;-71
2022/12/15 00:41:25;;;;;;;7.23;5.57;;;;;;;-3.01;98.08;100169.38;5035116;28;20376;-70
2022/12/15 00:43:50;;;;;;;10.87;6.57;;;;;;;-3.02;97.36;100174.69;5033972;28;20021;-71
2022/12/15 00:49:00;;;;;;;8.05;5.90;;;;;;;-3.02;97.41;100177.28;5033476;28;20354;-70
2022/12/15 01:21:41;;;;;;;7.57;5.25;;;;;;;-2.91;96.65;100209.56;5034712;28;20147;-71
2022/12/15 01:24:07;;;;;;;7.70;6.28;;;;;;;-2.86;95.59;100209.34;5033682;28;20481;-72
2022/12/15 01:26:33;;;;;;;9.33;6.27;;;;;;;-2.84;95.34;100226.56;5033439;28;20053;-70
2022/12/15 01:28:58;;;;;;;10.10;7.23;;;;;;;-2.87;95.52;100216.31;5033327;28;20101;-72
2022/12/15 01:31:23;;;;;;;9.50;7.03;;;;;;;-2.82;95.46;100222.09;5033458;28;20025;-70
2022/12/15 01:33:54;;;;;;;6.53;5.90;;;;;;;-2.83;95.11;100225.63;5032922;28;20069;-72
2022/12/15 01:36:19;;;;;;;6.72;5.28;;;;;;;-2.79;95.68;100225.44;5032754;28;20095;-70
2022/12/15 01:38:45;;;;;;;9.10;7.87;;;;;;;-2.81;95.36;100222.94;5015102;28;20437;-70
2022/12/15 01:41:11;;;;;;;9.10;6.73;;;;;;;-2.75;95.73;100232.13;5033583;28;20103;-71
2022/12/15 01:43:39;;;;;;;9.35;6.28;;;;;;;-2.74;95.98;100237.25;5033016;28;20108;-69
2022/12/15 01:46:12;;;;;;;8.50;6.93;;;;;;;-2.77;95.82;100240.06;5032837;28;20037;-73
2022/12/15 01:48:46;;;;;;;9.43;7.65;;;;;;;-2.84;94.88;100239.59;5032543;28;20580;-72
2022/12/15 01:51:17;;;;;;;7.20;6.07;;;;;;;-2.76;94.60;100267.78;5032083;28;20029;-72
2022/12/15 01:53:53;;;;;;;9.98;5.95;;;;;;;-2.74;94.81;100270.31;5032346;28;20025;-72
2022/12/15 01:56:22;;;;;;;8.93;7.53;;;;;;;-2.76;94.60;100272.16;5032671;28;20026;-74
2022/12/15 01:58:49;;;;;;;5.97;5.35;;;;;;;-2.84;94.21;100260.44;5032587;28;20440;-70
2022/12/15 02:01:15;;;;;;;8.30;6.60;;;;;;;-2.81;94.23;100265.47;5014874;28;20022;-71
2022/12/15 02:03:42;;;;;;;8.20;5.87;;;;;;;-2.85;94.13;100279.59;5032630;28;20036;-71
2022/12/15 02:06:10;;;;;;;8.13;6.13;;;;;;;-2.83;93.83;100280.34;5032580;28;20295;-71
2022/12/15 02:08:37;;;;;;;8.80;6.35;;;;;;;-2.83;94.08;100272.53;5014683;28;20033;-72
2022/12/15 02:11:11;;;;;;;9.43;7.30;;;;;;;-2.79;94.41;100283.59;5032419;28;20461;-70
2022/12/15 02:13:59;;;;;;;10.45;6.95;;;;;;;-2.82;94.30;100289.84;5031990;28;20037;-69
2022/12/15 02:16:34;;;;;;;;;;;;;;;-2.84;94.68;100303.88;5015042;28;20025;-71
2022/12/15 02:19:19;;;;;;;9.25;6.22;;;;;;;-2.94;94.36;100303.56;5014374;28;19909;-72
2022/12/15 02:22:03;;;;;;;7.07;5.60;;;;;;;-2.96;93.99;100313.22;5032512;28;20055;-69
2022/12/15 02:24:29;;;;;;;9.75;6.57;;;;;;;-2.92;94.34;100309.53;5032351;28;20037;-73
2022/12/15 02:27:42;;;;;;;10.07;7.07;;;;;;;-2.94;94.51;100302.72;5015141;28;20037;-70
2022/12/15 02:30:16;;;;;;;8.60;6.35;;;;;;;-3.04;94.26;100310.22;4988440;28;20040;-70
2022/12/15 02:32:53;;;;;;;9.55;6.75;;;;;;;-2.99;93.90;100304.75;5032345;28;20429;-71
2022/12/15 02:36:00;;;;;;;8.38;6.95;;;;;;;-2.98;94.06;100312.47;5032678;28;20029;-72
2022/12/15 02:38:37;;;;;;;9.15;6.80;;;;;;;-3.02;93.50;100316.19;5031758;28;20033;-72
2022/12/15 02:41:05;;;;;;;8.98;6.20;;;;;;;-3.05;93.22;100312.94;5031848;28;20401;-70
2022/12/15 02:43:34;;;;;;;9.32;7.82;;;;;;;-3.16;93.58;100316.16;5032168;28;20068;-69
2022/12/15 02:46:03;;;;;;;9.18;6.20;;;;;;;-3.13;93.64;100315.97;5032027;28;20025;-71
2022/12/15 02:48:44;;;;;;;8.63;6.95;;;;;;;-3.16;94.00;100323.97;5032068;28;20033;-70
2022/12/15 02:51:36;;;;;;;7.95;6.57;;;;;;;-3.27;93.43;100329.75;5032057;28;20025;-71
2022/12/15 02:54:32;;;;;;;9.23;7.20;;;;;;;-3.28;93.47;100341.09;5032240;28;20037;-72
2022/12/15 02:57:19;;;;;;;8.02;6.43;;;;;;;-3.36;93.52;100324.22;5032281;28;20029;-72
2022/12/15 02:59:56;;;;;;;10.02;6.72;;;;;;;-3.41;93.49;100331.47;5032988;28;20048;-69
2022/12/15 03:02:25;;;;;;;10.82;7.13;;;;;;;-3.38;93.05;100339.09;5032940;28;20128;-71
2022/12/15 03:04:51;;;;;;;;;;;;;;;-3.39;92.77;100334.81;5037467;28;20527;-70
2022/12/15 03:07:16;;;;;;;10.73;7.40;;;;;;;-3.45;92.86;100330.78;5036500;28;19909;-74
2022/12/15 03:10:09;;;;;;;10.82;6.63;;;;;;;-3.36;92.91;100347.66;5022777;28;20044;-71
2022/12/15 03:12:34;;;;;;;9.07;7.43;;;;;;;-3.38;92.21;100354.72;5036080;28;20137;-70
2022/12/15 03:15:00;;;;;;;9.87;7.60;;;;;;;-3.50;91.36;100344.03;5035780;28;20036;-68
2022/12/15 03:17:25;;;;;;;9.43;6.67;;;;;;;-3.52;92.02;100361.50;5035614;28;20443;-73
2022/12/15 03:19:51;;;;;;;13.00;8.17;;;;;;;-3.58;91.85;100361.84;5035800;28;20481;-69
2022/12/15 03:22:17;;;;;;;9.37;7.37;;;;;;;-3.57;91.37;100376.53;5035280;28;20113;-71
2022/12/15 03:24:43;;;;;;;11.00;8.13;;;;;;;-3.71;91.98;100371.25;5018066;28;20063;-70
2022/12/15 03:27:08;;;;;;;10.75;8.02;;;;;;;-3.81;91.95;100364.81;5000968;28;20056;-69
2022/12/15 03:29:34;;;;;;;9.10;6.90;;;;;;;-3.90;92.12;100360.13;5035314;28;20029;-70
2022/12/15 03:31:59;;;;;;;10.73;6.80;;;;;;;-3.87;91.89;100370.34;5017809;28;20041;-68
2022/12/15 03:34:25;;;;;;;8.63;7.37;;;;;;;-3.97;91.16;100374.38;5035131;28;20032;-70
2022/12/15 03:36:50;;;;;;;12.47;7.53;;;;;;;-4.03;91.29;100364.28;5035338;28;20025;-71
2022/12/15 03:39:16;;;;;;;10.13;7.13;;;;;;;-4.02;90.64;100371.19;5034992;28;20079;-72
2022/12/15 03:41:41;;;;;;;10.23;7.77;;;;;;;-3.97;90.30;100384.78;5000750;28;20052;-73
2022/12/15 03:44:07;;;;;;;8.80;7.13;;;;;;;-4.01;90.09;100384.09;5035263;28;20032;-74
2022/12/15 03:46:33;;;;;;;10.80;7.45;;;;;;;-4.11;90.15;100382.88;5035521;28;20029;-69
2022/12/15 03:48:58;;;;;;;9.30;7.27;;;;;;;-4.14;90.75;100381.28;5035031;28;20484;-70
2022/12/15 03:51:24;;;;;;;12.03;7.83;;;;;;;-4.21;91.27;100373.88;5035147;28;20034;-70
2022/12/15 03:53:50;;;;;;;10.97;7.50;;;;;;;-4.22;90.54;100386.03;5034804;28;20080;-67
2022/12/15 03:56:16;;;;;;;9.90;7.70;;;;;;;-4.28;91.18;100395.91;5034684;28;20355;-70
2022/12/15 03:58:42;;;;;;;12.73;7.97;;;;;;;-4.30;91.31;100393.38;5035416;28;20056;-69
2022/12/15 04:01:19;;;;;;;9.00;7.27;;;;;;;-4.26;90.54;100399.28;5035845;28;20037;-70
2022/12/15 04:03:45;;;;;;;12.02;7.40;;;;;;;-4.40;91.16;100386.94;5037278;28;20039;-70
2022/12/15 04:06:11;;;;;;;11.83;8.17;;;;;;;-4.47;90.85;100382.97;5036212;28;20376;-70
2022/12/15 04:08:36;;;;;;;11.00;8.43;;;;;;;-4.43;90.49;100403.53;5021550;28;20104;-71
2022/12/15 04:11:03;;;;;;;11.45;8.43;;;;;;;-4.40;91.01;100408.59;5036342;28;20107;-69
2022/12/15 04:13:28;;;;;;;12.33;8.57;;;;;;;-4.42;90.57;100412.19;5044263;28;20038;-69
2022/12/15 04:15:54;;;;;;;10.87;8.73;;;;;;;-4.42;89.78;100422.56;5047901;28;20025;-71
2022/12/15 04:18:20;;;;;;;10.63;7.90;;;;;;;-4.56;90.06;100412.03;5004993;28;20030;-69
2022/12/15 04:20:45;;;;;;;12.33;8.17;;;;;;;-4.45;89.86;100435.72;5037001;28;20045;-72
2022/12/15 04:23:11;;;;;;;12.97;8.63;;;;;;;-4.50;90.54;100422.13;5037115;28;20709;-71
2022/12/15 05:32:13;;;;;;;13.70;9.57;;;;;;;-4.90;87.69;100519.31;5033221;28;20477;-69
2022/12/15 05:34:38;;;;;;;14.43;9.67;;;;;;;-4.96;87.91;100520.41;5033310;28;20086;-69
2022/12/15 05:37:06;;;;;;;14.70;10.73;;;;;;;-4.97;87.61;100526.53;5032964;28;20022;-69
2022/12/15 05:39:32;;;;;;;14.25;9.95;;;;;;;-4.97;87.87;100526.53;5033307;28;20026;-71
2022/12/15 05:41:57;;;;;;;14.30;9.03;;;;;;;-4.87;87.32;100521.78;5032980;28;20040;-71
2022/12/15 05:44:29;;;;;;;11.67;9.43;;;;;;;-4.85;87.08;100531.19;5033228;28;20075;-72
2022/12/15 05:46:58;;;;;;;16.45;9.05;;;;;;;-4.81;86.61;100540.50;5016246;28;20025;-69
2022/12/15 05:49:24;;;;;;;16.17;9.27;;;;;;;-4.74;86.11;100552.31;5033133;28;20068;-73
2022/12/15 05:51:51;;;;;;;17.60;10.30;;;;;;;-4.76;86.50;100548.94;5035910;28;20056;-69
2022/12/15 05:54:18;;;;;;;14.18;9.77;;;;;;;-4.77;86.66;100533.41;5039495;28;20060;-71
2022/12/15 05:56:45;;;;;;;14.85;9.95;;;;;;;-4.80;86.13;100529.22;5037949;28;20029;-71
2022/12/15 05:59:10;;;;;;;14.90;10.40;;;;;;;-4.90;86.03;100535.75;5033191;28;20475;-71
2022/12/15 06:01:36;;;;;;;14.13;10.00;;;;;;;-5.01;86.11;100527.59;5034906;28;20030;-75
2022/12/15 06:04:04;;;;;;;16.98;12.85;;;;;;;-5.00;86.33;100531.88;5037425;28;20055;-71
2022/12/15 06:06:30;;;;;;;16.23;11.57;;;;;;;-5.07;87.14;100527.88;5036709;28;20033;-69
2022/12/15 06:08:56;;;;;;;15.63;10.83;;;;;;;-5.03;86.74;100535.44;5032270;28;20493;-71
2022/12/15 06:11:22;;;;;;;14.97;9.83;;;;;;;-5.02;86.10;100544.91;5037547;28;20033;-71
2022/12/15 06:13:49;;;;;;;17.98;11.07;;;;;;;-5.04;87.15;100545.91;5021386;28;20050;-71
2022/12/15 06:16:20;;;;;;;14.23;9.77;;;;;;;-5.06;86.26;100543.38;5036654;28;20025;-72
2022/12/15 06:18:51;;;;;;;17.60;10.45;;;;;;;-5.16;86.81;100529.13;5035718;28;20350;-71
2022/12/15 06:21:20;;;;;;;19.58;11.25;;;;;;;-5.14;86.98;100544.66;5032039;28;20037;-71
2022/12/15 06:23:46;;;;;;;16.00;9.35;;;;;;;-5.19;86.13;100552.66;5032889;28;20037;-71
2022/12/15 06:26:24;;;;;;;18.17;10.50;;;;;;;-5.25;86.74;100558.09;5032044;28;20029;-70
2022/12/15 06:28:53;;;;;;;17.85;12.18;;;;;;;-5.16;87.04;100568.09;5033928;28;20036;-71
2022/12/15 06:31:24;;;;;;;16.10;10.70;;;;;;;-5.24;87.35;100569.31;5035566;28;20034;-71
2022/12/15 06:33:50;;;;;;;15.98;9.80;;;;;;;-5.21;86.95;100574.38;5034829;28;20377;-70
2022/12/15 06:36:18;;;;;;;15.95;10.35;;;;;;;-5.17;86.95;100581.13;5033630;28;20029;-74
2022/12/15 06:38:47;;;;;;;17.17;11.15;;;;;;;-5.18;87.52;100587.25;5037770;28;20071;-69
2022/12/15 06:41:16;;;;;;;21.57;11.93;;;;;;;-5.34;87.51;100563.69;5036477;28;20029;-70
2022/12/15 06:43:51;;;;;;;17.88;11.55;;;;;;;-5.21;88.64;100588.19;5038523;28;20033;-70
2022/12/15 06:46:17;;;;;;;19.17;11.93;;;;;;;-5.14;87.61;100581.00;5036551;28;20155;-70
2022/12/15 06:48:44;;;;;;;16.27;11.13;;;;;;;-5.23;86.98;100591.75;5036829;28;20434;-72
2022/12/15 06:51:14;;;;;;;18.65;10.73;;;;;;;-5.30;87.64;100586.00;5036631;28;20507;-70
2022/12/15 06:53:41;;;;;;;16.25;10.48;;;;;;;-5.34;87.42;100572.31;5036697;28;20037;-71
2022/12/15 06:56:17;;;;;;;23.00;12.80;;;;;;;-5.16;88.37;100606.19;5036306;28;20032;-70
2022/12/15 06:58:42;;;;;;;15.60;10.88;;;;;;;-5.21;86.93;100623.69;5039621;28;20037;-73
2022/12/15 07:01:08;;;;;;;19.07;11.23;;;;;;;-5.28;87.40;100604.09;5041984;28;20453;-71
2022/12/15 07:03:37;;;;;;;17.07;10.07;;;;;;;-5.32;87.35;100609.44;5038296;28;20025;-71
2022/12/15 07:06:06;;;;;;;20.38;11.23;;;;;;;-5.48;88.00;100597.19;5035715;28;20083;-70
2022/12/15 07:08:32;;;;;;;13.93;9.15;;;;;;;-5.32;88.57;100625.00;5038374;28;20025;-72
2022/12/15 07:10:57;;;;;;;22.42;12.45;;;;;;;-5.34;88.62;100611.25;5034927;28;20028;-71
2022/12/15 07:13:24;;;;;;;17.77;10.00;;;;;;;-5.36;87.76;100613.06;5035903;28;20033;-71
2022/12/15 07:16:14;;;;;;;17.70;10.73;;;;;;;-5.31;87.86;100642.25;5037215;28;20095;-71
2022/12/15 07:18:40;;;;;;;19.27;11.17;;;;;;;-5.45;89.17;100636.81;5038608;28;20041;-72
2022/12/15 07:21:08;;;;;;;16.43;12.57;;;;;;;-5.50;88.84;100640.50;5037051;28;20375;-72
2022/12/15 07:23:35;;;;;;;22.48;11.35;;;;;;;-5.58;89.75;100630.44;5039354;28;20083;-71
2022/12/15 07:26:07;;;;;;;17.48;11.52;;;;;;;-5.46;89.35;100647.28;5035157;28;20041;-71
2022/12/15 07:28:34;;;;;;;17.65;11.23;;;;;;;-5.48;89.21;100649.94;5035847;28;20029;-70
2022/12/15 07:31:06;;;;;;;17.90;11.52;;;;;;;-5.47;89.22;100650.78;5034940;28;20062;-72
2022/12/15 07:33:32;;;;;;;19.20;13.15;;;;;;;-5.65;89.38;100634.22;5036411;28;20055;-72
2022/12/15 07:35:58;;;;;;;21.00;12.15;;;;;;;-5.49;89.16;100666.41;5035818;28;20033;-71
2022/12/15 07:38:23;;;;;;;20.13;13.30;;;;;;;-5.44;88.81;100682.63;5036580;28;20090;-72
2022/12/15 07:40:53;;;;;;;17.80;12.37;;;;;;;-5.42;89.02;100678.22;5033957;28;20026;-71
2022/12/15 07:43:21;;;;;;;15.98;11.10;;;;;;;-5.46;88.89;100676.66;5035566;28;20048;-72
2022/12/15 07:45:51;;;;;;;15.88;10.55;;;;;;;-5.46;88.63;100678.41;5035299;28;20049;-71
2022/12/15 07:48:18;;;;;;;16.77;11.55;;;;;;;-5.43;88.72;100681.72;5036594;28;20032;-72
2022/12/15 07:50:44;;;;;;;21.08;11.73;;;;;;;-5.51;88.33;100685.53;5017784;28;20492;-71
2022/12/15 07:53:09;;;;;;;19.10;11.10;;;;;;;-5.46;87.73;100692.22;5035112;28;20030;-72
2022/12/15 07:55:35;;;;;;;20.13;13.00;;;;;;;-5.51;88.08;100698.50;5036534;28;20033;-70
2022/12/15 07:58:00;;;;;;;22.60;11.27;;;;;;;-5.50;88.12;100708.81;5038389;28;20052;-70
2022/12/15 08:00:27;;;;;;;18.40;11.73;;;;;;;-5.38;88.80;100700.53;5035342;28;20032;-71
2022/12/15 08:02:52;;;;;;;15.73;11.00;;;;;;;-5.31;87.32;100714.94;5038251;28;20033;-72
2022/12/15 08:05:18;;;;;;;19.60;11.77;;;;;;;-5.41;87.22;100711.06;5037411;28;20397;-70
2022/12/15 08:07:43;;;;;;;19.30;11.27;;;;;;;-5.40;87.68;100698.91;5036743;28;20380;-71
2022/12/15 08:10:09;;;;;;;14.20;9.63;;;;;;;-5.37;87.19;100720.41;5035811;28;20021;-70
2022/12/15 08:12:34;;;;;;;19.60;12.57;;;;;;;-5.34;87.70;100715.06;5037169;28;20067;-71
2022/12/15 08:15:00;;;;;;;15.83;11.73;;;;;;;-5.22;87.26;100715.47;5038894;28;20075;-72
2022/12/15 08:17:26;;;;;;;19.75;12.05;;;;;;;-5.16;87.24;100716.06;5038927;28;20067;-70
2022/12/15 08:19:53;;;;;;;19.97;12.37;;;;;;;-5.14;86.84;100709.06;5035262;28;20054;-72
2022/12/15 08:22:19;;;;;;;18.70;12.20;;;;;;;-5.26;86.38;100706.13;5037961;28;20465;-71
2022/12/15 08:24:44;;;;;;;19.43;11.30;;;;;;;-5.17;86.68;100716.97;5038003;28;20033;-70
2022/12/15 08:27:10;;;;;;;19.10;11.63;;;;;;;-5.20;86.77;100700.69;5034233;28;20037;-71
2022/12/15 08:29:36;;;;;;;18.80;10.87;;;;;;;-5.14;85.69;100716.00;5034300;28;20056;-70
2022/12/15 08:32:01;;;;;;;17.13;11.23;;;;;;;-5.27;85.62;100714.81;5034216;28;20300;-71
2022/12/15 08:34:27;;;;;;;16.83;11.67;;;;;;;-5.23;86.52;100731.94;5032956;28;20358;-72
2022/12/15 08:36:53;;;;;;;20.53;12.17;;;;;;;-5.24;85.74;100730.25;5032934;28;20033;-71
2022/12/15 08:39:19;;;;;;;19.35;12.55;;;;;;;-5.31;85.88;100714.94;5034071;28;20112;-70
2022/12/15 08:41:45;;;;;;;21.63;13.35;;;;;;;-5.23;86.18;100729.34;5035697;28;20061;-71
2022/12/15 08:44:10;;;;;;;20.10;14.13;;;;;;;-5.27;86.39;100732.97;5038110;28;20350;-69
2022/12/15 08:46:35;;;;;;;21.47;14.47;;;;;;;-5.31;86.47;100735.72;5034313;28;20056;-70
2022/12/15 08:49:02;;;;;;;22.80;13.57;;;;;;;-5.28;86.79;100749.47;5033967;28;20029;-71
2022/12/15 08:51:30;;;;;;;19.33;11.32;;;;;;;-5.28;86.06;100745.13;5034060;28;20467;-69
2022/12/15 08:53:57;;;;;;;16.98;11.18;;;;;;;-5.16;85.57;100751.59;5033793;28;20385;-72
2022/12/15 08:56:24;;;;;;;20.10;12.05;;;;;;;-5.14;85.63;100749.75;5033937;28;20124;-72
2022/12/15 08:58:56;;;;;;;17.33;11.77;;;;;;;-5.02;85.26;100757.03;5033959;28;20033;-71
2022/12/15 09:01:23;;;;;;;17.50;12.35;;;;;;;-5.02;84.09;100764.81;5033633;28;20021;-71
2022/12/15 09:03:49;;;;;;;14.70;10.63;;;;;;;-5.00;84.95;100756.06;5032314;28;20037;-72
2022/12/15 09:06:18;;;;;;;17.88;11.75;;;;;;;-4.92;85.36;100763.53;5033409;28;20017;-72
2022/12/15 09:08:44;;;;;;;18.30;12.98;;;;;;;-4.91;84.53;100767.84;5033314;28;20075;-71
2022/12/15 09:11:09;;;;;;;22.67;12.13;;;;;;;-4.96;84.50;100766.31;5032225;28;20445;-70
2022/12/15 09:13:35;;;;;;;19.43;11.87;;;;;;;-4.91;83.67;100765.25;5033550;28;20063;-70
2022/12/15 09:16:13;;;;;;;20.37;12.70;;;;;;;-4.93;83.80;100774.81;5033350;28;20021;-71
2022/12/15 09:18:42;;;;;;;22.20;11.38;;;;;;;-5.14;83.71;100754.97;5033252;28;20033;-72
2022/12/15 09:21:08;;;;;;;19.48;12.05;;;;;;;-5.26;84.82;100761.47;5033138;28;20041;-72
2022/12/15 09:23:34;;;;;;;22.58;12.45;;;;;;;-5.31;85.47;100772.06;5033541;28;20481;-71
2022/12/15 09:26:06;;;;;;;20.02;12.90;;;;;;;-5.19;84.94;100764.69;5033464;28;20025;-72
2022/12/15 09:28:32;;;;;;;19.13;11.95;;;;;;;-5.21;84.46;100767.31;5033185;28;20119;-71
2022/12/15 09:31:06;;;;;;;17.98;11.02;;;;;;;-5.37;85.49;100755.88;5033970;28;20040;-72
2022/12/15 09:33:32;;;;;;;15.70;11.18;;;;;;;-5.24;85.26;100779.59;5033324;28;20413;-73
2022/12/15 09:35:57;;;;;;;19.00;12.43;;;;;;;-5.42;84.68;100769.06;5033343;28;20083;-72
2022/12/15 09:38:23;;;;;;;19.33;11.80;;;;;;;-5.33;85.06;100786.84;5032953;28;20022;-73
2022/12/15 09:40:49;;;;;;;18.60;12.60;;;;;;;-5.35;84.51;100786.06;5033040;28;20033;-71
2022/12/15 09:43:21;;;;;;;22.83;13.53;;;;;;;-5.45;85.21;100779.56;5032621;28;20116;-72
2022/12/15 09:45:54;;;;;;;23.30;12.32;;;;;;;-5.54;85.60;100774.72;5033192;28;20130;-73
2022/12/15 09:48:23;;;;;;;17.13;11.35;;;;;;;-5.64;85.68;100783.78;5038942;28;20088;-73
2022/12/15 09:50:52;;;;;;;19.10;11.43;;;;;;;-5.61;85.97;100801.81;5045901;28;20022;-73
2022/12/15 09:53:23;;;;;;;15.70;10.60;;;;;;;-5.55;85.72;100803.31;5033075;28;20080;-71
2022/12/15 09:56:02;;;;;;;20.10;12.68;;;;;;;-5.71;85.83;100809.13;5015845;28;20637;-72
2022/12/15 09:58:39;;;;;;;16.55;11.50;;;;;;;-5.67;86.15;100809.84;5033097;28;20083;-73
2022/12/15 10:01:15;;;;;;;17.45;12.00;;;;;;;-5.62;86.06;100815.69;5032849;28;20116;-71
2022/12/15 10:03:50;;;;;;;19.00;13.07;;;;;;;-5.68;85.31;100808.16;5031338;28;20124;-75
2022/12/15 10:06:30;;;;;;;20.10;12.20;;;;;;;-5.62;84.84;100828.66;5032249;28;20103;-69
2022/12/15 10:09:08;;;;;;;18.17;11.65;;;;;;;-5.64;84.49;100826.13;5031063;28;20051;-70
2022/12/15 10:11:47;;;;;;;29.58;13.93;;;;;;;-5.70;85.60;100835.91;5032412;28;20032;-70
2022/12/15 10:14:13;;;;;;;18.02;12.70;;;;;;;-5.63;85.90;100858.09;5030864;28;20097;-72
2022/12/15 10:17:01;;;;;;;19.30;11.43;;;;;;;-5.68;85.31;100852.25;5032485;28;20064;-71
2022/12/15 10:19:36;;;;;;;18.90;13.60;;;;;;;-5.74;84.89;100852.50;5032200;28;20097;-70
2022/12/15 10:22:02;;;;;;;20.80;11.65;;;;;;;-5.77;85.22;100857.78;5032720;28;20029;-72
2022/12/15 10:24:30;;;;;;;20.03;13.00;;;;;;;-5.89;84.38;100850.47;5031464;28;20041;-74
2022/12/15 10:27:12;;;;;;;17.88;11.93;;;;;;;-5.90;84.77;100853.97;5031553;28;20021;-72
2022/12/15 10:30:08;;;;;;;16.17;11.40;;;;;;;-5.99;84.85;100850.81;5033029;28;20428;-72
2022/12/15 10:32:49;;;;;;;18.88;12.43;;;;;;;-6.10;85.46;100852.09;5032729;28;20043;-71
2022/12/15 10:35:19;;;;;;;19.33;12.80;;;;;;;-6.04;85.50;100846.72;5038244;28;20107;-69
2022/12/15 10:37:45;;;;;;;16.30;11.32;;;;;;;-5.91;84.36;100858.31;5036752;28;20025;-71
2022/12/15 10:40:17;;;;;;;14.33;10.63;;;;;;;-6.02;84.75;100850.94;5041207;28;20087;-70
2022/12/15 10:42:49;;;;;;;20.98;12.32;;;;;;;-6.09;84.43;100856.38;5041309;28;20034;-70
2022/12/15 10:45:38;;;;;;;20.35;13.40;;;;;;;-6.18;85.03;100867.94;5050120;28;20033;-71
2022/12/15 10:48:05;;;;;;;18.30;12.18;;;;;;;-6.22;84.92;100862.91;5049302;28;20026;-70
2022/12/15 10:50:33;;;;;;;16.70;11.43;;;;;;;-6.45;85.03;100817.06;5043492;28;20025;-71
2022/12/15 10:52:58;;;;;;;17.65;11.70;;;;;;;-6.15;84.86;100874.75;5038305;28;20153;-69
2022/12/15 10:55:36;;;;;;;17.33;12.03;;;;;;;-5.99;85.16;100878.50;5036305;28;20030;-70
2022/12/15 10:58:04;;;;;;;22.25;13.10;;;;;;;-5.76;85.18;100885.44;5035173;28;20021;-69
2022/12/15 11:00:31;;;;;;;21.75;12.80;;;;;;;-5.71;83.63;100878.31;5033465;28;20049;-72
2022/12/15 11:02:58;;;;;;;16.58;12.77;;;;;;;-5.81;83.13;100895.09;5032208;28;20034;-69
2022/12/15 11:05:25;;;;;;;20.20;11.90;;;;;;;-5.80;83.13;100889.84;5014292;28;20507;-74
2022/12/15 11:07:53;;;;;;;18.83;12.25;;;;;;;-5.79;83.37;100891.53;5032339;28;20021;-71
2022/12/15 11:12:50;;;;;;;18.55;12.60;;;;;;;-5.79;82.69;100899.31;5031955;28;20053;-71
2022/12/15 11:13:21;;;;;;;19.58;13.00;;;;;;;-5.90;83.06;100908.44;5031914;28;20025;-71
2022/12/15 11:15:55;;;;;;;18.52;11.98;;;;;;;-5.86;83.69;100908.25;5031649;28;20039;-71
2022/12/15 11:18:25;;;;;;;18.58;13.23;;;;;;;-5.84;82.59;100906.44;5031727;28;20021;-72
2022/12/15 11:21:16;;;;;;;27.65;13.43;;;;;;;-5.91;83.51;100914.53;5031817;28;20049;-69
2022/12/15 11:23:55;;;;;;;22.73;13.55;;;;;;;-6.04;83.79;100906.34;5031947;28;20128;-69
2022/12/15 11:26:55;;;;;;;16.48;10.98;;;;;;;-6.27;84.33;100901.97;5035806;28;20116;-71
2022/12/15 11:29:47;;;;;;;18.13;12.60;;;;;;;-6.40;84.36;100904.09;5035883;28;20041;-74
2022/12/15 11:32:14;;;;;;;17.92;12.23;;;;;;;-6.57;84.49;100907.28;5035708;28;20025;-70
2022/12/15 11:34:46;;;;;;;20.02;11.98;;;;;;;-6.74;85.04;100895.75;5035164;28;20037;-69
2022/12/15 11:37:38;;;;;;;19.15;12.88;;;;;;;-6.91;85.45;100899.75;5034224;28;20025;-70
2022/12/15 11:40:17;;;;;;;25.98;15.10;;;;;;;-7.08;86.36;100889.06;5035049;28;20037;-72
2022/12/15 11:43:22;;;;;;;21.45;13.15;;;;;;;-7.14;86.72;100901.38;5035077;28;20362;-70
2022/12/15 11:45:56;;;;;;;17.35;12.00;;;;;;;-7.19;86.88;100909.28;5033898;28;20025;-71
2022/12/15 11:48:32;;;;;;;20.13;12.05;;;;;;;-7.30;87.11;100896.66;5035433;28;20124;-71
2022/12/15 11:51:05;;;;;;;19.77;13.02;;;;;;;-7.34;87.34;100902.81;5035088;28;20029;-69
2022/12/15 11:53:53;;;;;;;21.35;12.05;;;;;;;-7.39;87.56;100907.28;5035260;28;20033;-70
2022/12/15 11:56:25;;;;;;;19.95;12.43;;;;;;;-7.46;87.46;100904.94;5035086;28;20477;-71
2022/12/15 11:59:06;;;;;;;21.40;12.45;;;;;;;-7.47;87.84;100914.44;5035116;28;20053;-68
2022/12/15 12:02:02;;;;;;;22.02;12.80;;;;;;;-7.49;87.93;100908.47;5035189;28;20029;-70
2022/12/15 12:04:36;;;;;;;22.90;14.48;;;;;;;-7.61;88.11;100906.22;5033980;28;20060;-67
2022/12/15 12:07:34;;;;;;;22.98;14.13;;;;;;;-7.65;88.78;100914.97;5035047;28;20083;-71
2022/12/15 12:10:26;;;;;;;22.30;12.65;;;;;;;-7.69;88.77;100910.78;5034331;28;20029;-68
2022/12/15 12:13:10;;;;;;;21.40;13.57;;;;;;;-7.65;89.24;100914.97;5034824;28;20080;-70
2022/12/15 12:16:13;;;;;;;24.90;15.35;;;;;;;-7.62;88.63;100920.03;5034777;28;20026;-70
2022/12/15 12:19:02;;;;;;;22.17;14.02;;;;;;;-7.78;88.28;100892.94;5034449;28;20068;-70
2022/12/15 12:21:43;;;;;;;16.30;11.82;;;;;;;-7.61;88.14;100930.34;5034399;28;20038;-70
2022/12/15 12:24:21;;;;;;;15.23;10.02;;;;;;;-7.66;88.59;100939.13;5034361;28;20060;-72
2022/12/15 12:27:00;;;;;;;18.70;11.73;;;;;;;-7.66;88.44;100936.53;5034497;28;20029;-71
2022/12/15 12:29:40;;;;;;;16.92;12.45;;;;;;;-7.55;89.30;100934.47;5034447;28;20369;-71
2022/12/15 12:32:14;;;;;;;19.65;11.95;;;;;;;-7.58;88.07;100929.41;5034448;28;20030;-71
2022/12/15 12:34:59;;;;;;;17.23;11.20;;;;;;;-7.51;87.95;100938.69;5034197;28;20028;-72
2022/12/15 12:37:41;;;;;;;19.98;11.40;;;;;;;-7.67;88.55;100932.25;5033619;28;20030;-70
2022/12/15 12:40:18;;;;;;;21.15;12.45;;;;;;;-7.67;89.43;100937.44;5034174;28;20026;-70
2022/12/15 12:42:52;;;;;;;20.20;12.27;;;;;;;-7.62;89.17;100930.38;5034114;28;20032;-71
2022/12/15 12:45:20;;;;;;;15.73;10.55;;;;;;;-7.64;88.90;100932.16;5034008;28;20048;-70
2022/12/15 12:47:55;;;;;;;18.90;13.05;;;;;;;-7.77;89.56;100938.59;5032564;28;20152;-68
2022/12/15 12:50:28;;;;;;;20.80;11.88;;;;;;;-7.88;90.37;100924.19;5033919;28;20032;-68
2022/12/15 12:53:03;;;;;;;20.67;15.15;;;;;;;-7.77;90.60;100930.84;5033695;28;20037;-69
2022/12/15 12:55:39;;;;;;;18.63;12.32;;;;;;;-7.72;89.85;100928.97;5033607;28;20029;-68
2022/12/15 12:58:36;;;;;;;14.93;10.30;;;;;;;-7.78;89.77;100926.56;5032499;28;20039;-71
2022/12/15 13:01:24;;;;;;;17.83;12.25;;;;;;;-8.07;90.27;100904.09;5033810;28;20021;-69
2022/12/15 13:04:32;;;;;;;16.95;11.48;;;;;;;-7.97;91.05;100924.47;5032298;28;20033;-71
2022/12/15 13:07:35;;;;;;;23.98;12.40;;;;;;;-7.96;91.31;100931.31;5030634;28;20033;-70
2022/12/15 13:10:06;;;;;;;17.58;11.55;;;;;;;-7.98;91.15;100930.53;5033654;28;20090;-67
2022/12/15 13:12:52;;;;;;;18.48;11.93;;;;;;;-7.96;91.39;100931.31;5033247;28;20038;-70
2022/12/15 13:15:29;;;;;;;17.10;10.98;;;;;;;-7.99;90.88;100921.06;5033739;28;20037;-72
2022/12/15 13:18:06;;;;;;;17.90;11.02;;;;;;;-8.08;90.88;100916.16;5033627;28;20025;-69
2022/12/15 13:20:36;;;;;;;17.10;11.15;;;;;;;-8.08;91.33;100910.16;5033241;28;20072;-68
2022/12/15 13:23:26;;;;;;;17.05;9.15;;;;;;;-8.16;90.92;100921.50;5033741;28;20052;-68
2022/12/15 13:25:57;;;;;;;16.43;10.43;;;;;;;-8.19;91.59;100929.34;5033725;28;20033;-70
2022/12/15 13:28:26;;;;;;;18.48;11.75;;;;;;;-8.31;91.79;100919.34;5033706;28;20036;-69
2022/12/15 13:31:11;;;;;;;20.70;10.65;;;;;;;-8.39;92.17;100910.09;5033792;28;20057;-69
2022/12/15 13:33:44;;;;;;;16.40;11.65;;;;;;;-8.41;91.88;100906.72;5032964;28;20060;-69
2022/12/15 13:36:10;;;;;;;18.63;11.60;;;;;;;-8.39;92.14;100923.88;5033154;28;20544;-74
2022/12/15 13:38:56;;;;;;;20.60;11.93;;;;;;;-8.37;92.29;100923.88;5030664;28;20108;-71
2022/12/15 13:41:22;;;;;;;17.98;12.13;;;;;;;-8.51;92.30;100906.13;5032542;28;20025;-69
2022/12/15 13:43:52;;;;;;;17.48;11.55;;;;;;;-8.54;92.67;100919.97;5032448;28;20054;-71
2022/12/15 13:46:28;;;;;;;15.68;11.55;;;;;;;-8.51;92.91;100912.13;5033027;28;20034;-69
2022/12/15 13:49:32;;;;;;;17.00;10.52;;;;;;;-8.48;92.92;100911.19;5032055;28;20079;-72
2022/12/15 13:52:10;;;;;;;18.63;10.88;;;;;;;-8.56;92.86;100905.41;5001017;28;20033;-72
2022/12/15 13:54:40;;;;;;;16.05;11.68;;;;;;;-8.66;93.45;100906.53;5014827;28;20029;-70